Impacts TAF Board INFO
FOR SITUATIONAL AWARENESS. NOT TO BE USED FOR FLIGHT PLANNING PURPOSES.
IDs:

KBFM - Mobile/Downtown Arpt, AL, US

Issued at 0521 UTC 19 Nov 2017
Updated at 1019 UTC 19 Nov 2017
Potential Impact None Slight Moderate High
Time0953Z 19/11Z 19/12Z 19/13Z 19/14Z 19/15Z 19/16Z 19/17Z 19/18Z 19/19Z 19/20Z 19/21Z 19/22Z 19/23Z>>
Type OBS PRVL PRVL PRVL PRVL PRVL PRVL PRVL PRVL PRVL PRVL PRVL PRVL PRVL
VIS 10 >6 >6 >6 >6 >6 >6 >6 >6 >6 >6 >6 >6 >6
CIG 75 50 50 -- -- -- -- -- -- -- -- -- -- --
Cover BKN OVC OVC SKC SKC SKC SKC SKC SKC SKC SKC SKC SKC SKC
FltCat VFR VFR VFR VFR VFR VFR VFR VFR VFR VFR VFR VFR VFR VFR
WX -- -- -- -- -- -- -- -- -- -- -- -- -- --
WDir 340 330 330 360 360 360 360 360 360 360 360 360 360 360
WSpd 21 15 15 15 15 15 15 15 15 15 15 15 15 15
WGst -- 23 23 25 25 25 25 25 25 25 25 25 25 25

Raw TAF
KBFM 190521Z 1906/2006 33015G23KT P6SM SCT015 BKN050 OVC080
  FM191300 36015G25KT P6SM SKC


Raw METAR
KBFM 190953Z AUTO 34021KT 10SM BKN075 BKN090 13/06 A3005 RMK AO2 PK WND 33031/0932 SLP175 T01280061
KBFM 190853Z AUTO 34019G25KT 10SM BKN070 OVC085 14/07 A3003 RMK AO2 PK WND 34026/0821 SLP168 T01390072 53020
KBFM 190753Z AUTO 33020G28KT 10SM BKN070 OVC090 15/08 A3001 RMK AO2 PK WND 32029/0742 SLP160 T01500083

METAR Board
Radar Display
Forecast Discussion

FOR SITUATIONAL AWARENESS. NOT TO BE USED FOR FLIGHT PLANNING PURPOSES.